Time;durP1;ratioP1;P1;durP2;ratioP2;P2;SDS_P1;SDS_P2;PMS_P1;PMS_P2;Temp;Humidity;BMP_temperature;BMP_pressure;BME280_temperature;BME280_humidity;BME280_pressure;Samples;Min_cycle;Max_cycle;Signal;HPM_P1;HPM_P2
2024/01/18 00:01:12;;;;;;;;;;;;;;;-140.72;0.00;52652.63;5094501;28;20078;-71
2024/01/18 00:03:39;;;;;;;;;;;;;;;-140.72;0.00;52630.31;5096831;28;19967;-71
2024/01/18 00:06:04;;;;;;;;;;;;;;;-140.72;0.00;52634.38;5088671;28;19920;-71
2024/01/18 00:08:29;;;;;;;;;;;;;;;-140.72;0.00;52632.34;5091189;28;19932;-71
2024/01/18 00:10:54;;;;;;;;;;;;;;;-140.72;0.00;52618.13;5094775;28;19970;-71
2024/01/18 00:13:20;;;;;;;;;;;;;;;-140.72;0.00;52664.81;5096397;28;19920;-71
2024/01/18 00:15:45;;;;;;;;;;;;;;;-140.72;0.00;52626.25;5094467;28;19920;-70
2024/01/18 00:18:11;;;;;;;;;;;;;;;-140.72;0.00;52640.44;5091048;28;19946;-71
2024/01/18 00:20:36;;;;;;;;;;;;;;;-140.72;0.00;52638.41;5096433;28;19950;-71
2024/01/18 00:23:01;;;;;;;;;;;;;;;-140.72;0.00;52656.69;5103804;28;19923;-71
2024/01/18 00:25:26;;;;;;;;;;;;;;;-140.72;0.00;52650.59;5095918;28;19919;-71
2024/01/18 00:27:51;;;;;;;;;;;;;;;-140.72;0.00;52642.47;5105545;28;19920;-71
2024/01/18 00:30:18;;;;;;;;;;;;;;;-140.72;0.00;52634.38;5098256;28;19920;-71
2024/01/18 00:32:43;;;;;;;;;;;;;;;-140.72;0.00;52642.47;5083376;28;19939;-71
2024/01/18 00:35:08;;;;;;;;;;;;;;;-140.72;0.00;52638.41;5080695;28;19916;-71
2024/01/18 00:37:34;;;;;;;;;;;;;;;-140.72;0.00;52660.75;5096891;28;19965;-71
2024/01/18 00:39:59;;;;;;;;;;;;;;;-140.72;0.00;52658.72;5092950;28;20358;-71
2024/01/18 00:42:24;;;;;;;;;;;;;;;-140.72;0.00;52662.78;5130532;28;19930;-71
2024/01/18 00:44:49;;;;;;;;;;;;;;;-140.72;0.00;52674.94;5092875;28;19916;-70
2024/01/18 00:47:14;;;;;;;;;;;;;;;-140.72;0.00;52664.81;5099305;28;19920;-71
2024/01/18 00:49:40;;;;;;;;;;;;;;;-140.72;0.00;52646.53;5084857;28;19924;-71
2024/01/18 00:52:05;;;;;;;;;;;;;;;-140.72;0.00;52646.53;5069209;28;20125;-71
2024/01/18 00:54:30;;;;;;;;;;;;;;;-140.72;0.00;52648.56;5083896;28;19962;-71
2024/01/18 00:56:55;;;;;;;;;;;;;;;-140.72;0.00;52601.91;5090167;28;19927;-71
2024/01/18 00:59:21;;;;;;;;;;;;;;;-140.72;0.00;52670.88;5090382;28;19916;-71
2024/01/18 01:01:46;;;;;;;;;;;;;;;-140.72;0.00;52683.06;5087969;28;19982;-71
2024/01/18 01:04:11;;;;;;;;;;;;;;;-140.72;0.00;52650.59;5077965;28;20366;-71
2024/01/18 01:06:36;;;;;;;;;;;;;;;-140.72;0.00;52695.25;5081927;28;19939;-71
2024/01/18 01:09:02;;;;;;;;;;;;;;;-140.72;0.00;52668.84;5082185;28;19940;-71
2024/01/18 01:11:27;;;;;;;;;;;;;;;-140.72;0.00;52662.78;5093754;28;20388;-71
2024/01/18 01:13:53;;;;;;;;;;;;;;;-140.72;0.00;52691.19;5082929;28;20370;-71
2024/01/18 01:16:20;;;;;;;;;;;;;;;-140.72;0.00;52638.41;5111674;28;20341;-71
2024/01/18 01:18:45;;;;;;;;;;;;;;;-140.72;0.00;52654.66;5095387;28;19952;-71
2024/01/18 01:21:11;;;;;;;;;;;;;;;-140.72;0.00;52614.06;5106264;28;20254;-71
2024/01/18 01:23:41;;;;;;;;;;;;;;;-140.72;0.00;52703.34;5107167;28;20377;-71
2024/01/18 01:26:08;;;;;;;;;;;;;;;-140.72;0.00;52652.63;5076796;28;19924;-71
2024/01/18 01:28:33;;;;;;;;;;;;;;;-140.72;0.00;52697.28;5085232;28;19960;-71
2024/01/18 01:30:58;;;;;;;;;;;;;;;-140.72;0.00;52658.72;5103732;28;19927;-71
2024/01/18 01:33:24;;;;;;;;;;;;;;;-140.72;0.00;52644.50;5081389;28;19962;-71
2024/01/18 01:35:49;;;;;;;;;;;;;;;-140.72;0.00;52662.78;5089330;28;19920;-71
2024/01/18 01:38:14;;;;;;;;;;;;;;;-140.72;0.00;52658.72;5076365;28;19920;-71
2024/01/18 01:40:39;;;;;;;;;;;;;;;-140.72;0.00;52695.25;5085293;28;20335;-71
2024/01/18 01:43:04;;;;;;;;;;;;;;;-140.72;0.00;52670.88;5084853;28;19964;-71
2024/01/18 01:45:31;;;;;;;;;;;;;;;-140.72;0.00;52668.84;5090035;28;19931;-71
2024/01/18 01:47:56;;;;;;;;;;;;;;;-140.72;0.00;52699.31;5071998;28;20242;-71
2024/01/18 01:50:21;;;;;;;;;;;;;;;-140.72;0.00;52689.16;5087679;28;19920;-70
2024/01/18 01:52:47;;;;;;;;;;;;;;;-140.72;0.00;52679.00;5097696;28;19920;-73
2024/01/18 01:55:13;;;;;;;;;;;;;;;-140.72;0.00;52650.59;5088972;28;19920;-71
2024/01/18 01:57:39;;;;;;;;;;;;;;;-140.72;0.00;52648.56;5080625;28;19917;-71
2024/01/18 02:00:07;;;;;;;;;;;;;;;-140.72;0.00;52687.13;5063250;28;19956;-71
2024/01/18 02:02:34;;;;;;;;;;;;;;;-140.72;0.00;52685.09;5088744;28;19920;-71
2024/01/18 02:04:59;;;;;;;;;;;;;;;-140.72;0.00;52668.84;5087816;28;19927;-71
2024/01/18 02:07:26;;;;;;;;;;;;;;;-140.72;0.00;52642.47;5088828;28;19916;-71
2024/01/18 02:09:51;;;;;;;;;;;;;;;-140.72;0.00;52676.97;5103064;28;20266;-71
2024/01/18 02:12:16;;;;;;;;;;;;;;;-140.72;0.00;52693.22;5102250;28;19970;-70
2024/01/18 02:14:42;;;;;;;;;;;;;;;-140.72;0.00;52652.63;5096169;28;19916;-71
2024/01/18 02:17:08;;;;;;;;;;;;;;;-140.72;0.00;52737.84;5091981;28;20068;-71
2024/01/18 02:19:33;;;;;;;;;;;;;;;-140.72;0.00;52691.19;5090923;28;19916;-70
2024/01/18 02:21:59;;;;;;;;;;;;;;;-140.72;0.00;52670.88;5089958;28;19924;-71
2024/01/18 02:24:30;;;;;;;;;;;;;;;-140.72;0.00;52642.47;5080617;28;19923;-71
2024/01/18 02:26:56;;;;;;;;;;;;;;;-140.72;0.00;52699.31;5087026;28;19916;-71
2024/01/18 02:29:21;;;;;;;;;;;;;;;-140.72;0.00;52687.13;5093105;28;19975;-71
2024/01/18 02:31:46;;;;;;;;;;;;;;;-140.72;0.00;52662.78;5096650;28;19924;-71
2024/01/18 02:34:14;;;;;;;;;;;;;;;-140.72;0.00;52656.69;5094541;28;20266;-71
2024/01/18 02:36:39;;;;;;;;;;;;;;;-140.72;0.00;52660.75;5099072;28;20353;-72
2024/01/18 02:39:04;;;;;;;;;;;;;;;-140.72;0.00;52670.88;5099091;28;19927;-71
2024/01/18 02:41:31;;;;;;;;;;;;;;;-140.72;0.00;52693.22;5089861;28;20010;-71
2024/01/18 02:43:58;;;;;;;;;;;;;;;-140.72;0.00;52693.22;5084606;28;19930;-71
2024/01/18 02:46:23;;;;;;;;;;;;;;;-140.72;0.00;52705.38;5093057;28;19962;-71
2024/01/18 02:48:48;;;;;;;;;;;;;;;-140.72;0.00;52674.94;5080833;28;19932;-71
2024/01/18 02:51:13;;;;;;;;;;;;;;;-140.72;0.00;52634.38;5089775;28;20573;-71
2024/01/18 02:53:39;;;;;;;;;;;;;;;-140.72;0.00;52666.84;5084770;28;19920;-71
2024/01/18 02:56:05;;;;;;;;;;;;;;;-140.72;0.00;52646.53;5070924;28;19947;-71
2024/01/18 02:58:30;;;;;;;;;;;;;;;-140.72;0.00;52652.63;5078429;28;19920;-70
2024/01/18 03:00:55;;;;;;;;;;;;;;;-140.72;0.00;52666.84;5071757;28;20414;-70
2024/01/18 03:03:20;;;;;;;;;;;;;;;-140.72;0.00;52646.53;5072868;28;20377;-71
2024/01/18 03:05:46;;;;;;;;;;;;;;;-140.72;0.00;52707.41;5059329;28;19920;-71
2024/01/18 03:08:11;;;;;;;;;;;;;;;-140.72;0.00;52666.84;5060056;28;19917;-71
2024/01/18 03:10:36;;;;;;;;;;;;;;;-140.72;0.00;52642.47;5063821;28;19920;-71
2024/01/18 03:13:01;;;;;;;;;;;;;;;-140.72;0.00;52652.63;5062100;28;20003;-71
2024/01/18 03:15:27;;;;;;;;;;;;;;;-140.72;0.00;52681.03;5074861;28;19921;-71
2024/01/18 03:17:52;;;;;;;;;;;;;;;-140.72;0.00;52644.50;5067202;28;20019;-71
2024/01/18 03:20:17;;;;;;;;;;;;;;;-140.72;0.00;52662.78;5067570;28;19920;-71
2024/01/18 03:22:43;;;;;;;;;;;;;;;-140.72;0.00;52679.00;5067005;28;19955;-71
2024/01/18 03:25:08;;;;;;;;;;;;;;;-140.72;0.00;52640.44;5070596;28;20249;-71
2024/01/18 03:27:34;;;;;;;;;;;;;;;-140.72;0.00;52679.00;5066623;28;19917;-71
2024/01/18 03:29:59;;;;;;;;;;;;;;;-140.72;0.00;52650.59;5070718;28;19923;-71
2024/01/18 03:32:24;;;;;;;;;;;;;;;-140.72;0.00;52691.19;5067774;28;19916;-70
2024/01/18 03:34:49;;;;;;;;;;;;;;;-140.72;0.00;52691.19;5056391;28;19928;-70
2024/01/18 03:37:15;;;;;;;;;;;;;;;-140.72;0.00;52707.41;5064494;28;19916;-70
2024/01/18 03:39:40;;;;;;;;;;;;;;;-140.72;0.00;52685.09;5078862;28;19963;-71
2024/01/18 03:42:05;;;;;;;;;;;;;;;-140.72;0.00;52674.94;5082827;28;20040;-71
2024/01/18 03:44:32;;;;;;;;;;;;;;;-140.72;0.00;52668.84;5064907;28;20011;-71
2024/01/18 03:46:59;;;;;;;;;;;;;;;-140.72;0.00;52668.84;5066794;28;19973;-71
2024/01/18 03:49:24;;;;;;;;;;;;;;;-140.72;0.00;52699.31;5062975;28;20538;-71
2024/01/18 03:51:50;;;;;;;;;;;;;;;-140.72;0.00;52650.59;5065575;28;19924;-71
2024/01/18 03:54:15;;;;;;;;;;;;;;;-140.72;0.00;52679.00;5076100;28;19921;-70
2024/01/18 03:56:40;;;;;;;;;;;;;;;-140.72;0.00;52709.44;5084900;28;19920;-70
2024/01/18 03:59:06;;;;;;;;;;;;;;;-140.72;0.00;52717.56;5084604;28;19932;-70
2024/01/18 04:01:32;;;;;;;;;;;;;;;-140.72;0.00;52662.78;5077816;28;20389;-71
2024/01/18 04:03:57;;;;;;;;;;;;;;;-140.72;0.00;52689.16;5094933;28;19916;-70
2024/01/18 04:06:22;;;;;;;;;;;;;;;-140.72;0.00;52723.66;5107109;28;19942;-73
2024/01/18 04:08:47;;;;;;;;;;;;;;;-140.72;0.00;52717.56;5083401;28;19920;-70
2024/01/18 04:11:13;;;;;;;;;;;;;;;-140.72;0.00;52709.44;5096109;28;19934;-70
2024/01/18 04:13:38;;;;;;;;;;;;;;;-140.72;0.00;52705.38;5105595;28;20104;-71
2024/01/18 04:16:04;;;;;;;;;;;;;;;-140.72;0.00;52691.19;5095133;28;19965;-71
2024/01/18 04:18:30;;;;;;;;;;;;;;;-140.72;0.00;52713.50;5086743;28;19932;-71
2024/01/18 04:20:55;;;;;;;;;;;;;;;-140.72;0.00;52693.22;5086006;28;19927;-71
2024/01/18 04:23:21;;;;;;;;;;;;;;;-140.72;0.00;52719.59;5090283;28;19931;-71
2024/01/18 04:25:47;;;;;;;;;;;;;;;-140.72;0.00;52679.00;5102896;28;19923;-71
2024/01/18 04:28:12;;;;;;;;;;;;;;;-140.72;0.00;52737.84;5098791;28;20404;-71
2024/01/18 04:30:38;;;;;;;;;;;;;;;-140.72;0.00;52658.72;5094675;28;19920;-71
2024/01/18 04:33:03;;;;;;;;;;;;;;;-140.72;0.00;52691.19;5105278;28;19927;-71
2024/01/18 04:35:28;;;;;;;;;;;;;;;-140.72;0.00;52670.88;5099954;28;19920;-71
2024/01/18 04:37:53;;;;;;;;;;;;;;;-140.72;0.00;52697.28;5085221;28;19924;-71
2024/01/18 04:40:19;;;;;;;;;;;;;;;-140.72;0.00;52691.19;5086333;28;19985;-71
2024/01/18 04:42:44;;;;;;;;;;;;;;;-140.72;0.00;52674.94;5084730;28;19970;-71
2024/01/18 04:45:09;;;;;;;;;;;;;;;-140.72;0.00;52695.25;5069810;28;19928;-70
2024/01/18 04:47:35;;;;;;;;;;;;;;;-140.72;0.00;52660.75;5093970;28;19996;-70
2024/01/18 04:50:00;;;;;;;;;;;;;;;-140.72;0.00;52719.59;5101662;28;20014;-70
2024/01/18 04:52:25;;;;;;;;;;;;;;;-140.72;0.00;52721.63;5092955;28;19967;-70
2024/01/18 04:54:50;;;;;;;;;;;;;;;-140.72;0.00;52660.75;5101438;28;20285;-71
2024/01/18 04:57:15;;;;;;;;;;;;;;;-140.72;0.00;52679.00;5104347;28;19923;-70
2024/01/18 04:59:41;;;;;;;;;;;;;;;-140.72;0.00;52674.94;5099271;28;20323;-70
2024/01/18 05:02:06;;;;;;;;;;;;;;;-140.72;0.00;52705.38;5099417;28;19928;-70
2024/01/18 05:04:31;;;;;;;;;;;;;;;-140.72;0.00;52648.56;5089061;28;19943;-70
2024/01/18 05:06:57;;;;;;;;;;;;;;;-140.72;0.00;52693.22;5095117;28;19928;-71
2024/01/18 05:09:22;;;;;;;;;;;;;;;-140.72;0.00;52717.56;5092143;28;19920;-71
2024/01/18 05:11:47;;;;;;;;;;;;;;;-140.72;0.00;52687.13;5097184;28;20377;-72
2024/01/18 05:14:12;;;;;;;;;;;;;;;-140.72;0.00;52709.44;5106043;28;19920;-70
2024/01/18 05:16:43;;;;;;;;;;;;;;;-140.72;0.00;52689.16;5071848;28;20015;-72
2024/01/18 05:19:08;;;;;;;;;;;;;;;-140.72;0.00;52691.19;5084581;28;19928;-71
2024/01/18 05:21:33;;;;;;;;;;;;;;;-140.72;0.00;52693.22;5087643;28;19935;-71
2024/01/18 05:23:58;;;;;;;;;;;;;;;-140.72;0.00;52689.16;5093163;28;20386;-71
2024/01/18 05:26:24;;;;;;;;;;;;;;;-140.72;0.00;52725.69;5095832;28;19920;-70
2024/01/18 05:28:49;;;;;;;;;;;;;;;-140.72;0.00;52687.13;5075537;28;19916;-74
2024/01/18 05:31:14;;;;;;;;;;;;;;;-140.72;0.00;52666.84;5074322;28;20725;-74
2024/01/18 05:33:39;;;;;;;;;;;;;;;-140.72;0.00;52662.78;5074814;28;20381;-71
2024/01/18 05:36:05;;;;;;;;;;;;;;;-140.72;0.00;52707.41;5087528;28;20380;-71
2024/01/18 05:38:33;;;;;;;;;;;;;;;-140.72;0.00;52658.72;5088557;28;19916;-73
2024/01/18 05:40:58;;;;;;;;;;;;;;;-140.72;0.00;52664.81;5088433;28;19928;-71
2024/01/18 05:43:23;;;;;;;;;;;;;;;-140.72;0.00;52681.03;5100984;28;19956;-70
2024/01/18 05:45:48;;;;;;;;;;;;;;;-140.72;0.00;52695.25;5090588;28;20029;-69
2024/01/18 05:48:13;;;;;;;;;;;;;;;-140.72;0.00;52689.16;5107101;28;19958;-69
2024/01/18 05:50:39;;;;;;;;;;;;;;;-140.72;0.00;52715.53;5107747;28;20077;-70
2024/01/18 05:53:04;;;;;;;;;;;;;;;-140.72;0.00;52739.88;5102508;28;20311;-69
2024/01/18 05:55:29;;;;;;;;;;;;;;;-140.72;0.00;52693.22;5107202;28;19978;-70
2024/01/18 05:57:55;;;;;;;;;;;;;;;-140.72;0.00;52683.06;5093564;28;20280;-70
2024/01/18 06:00:21;;;;;;;;;;;;;;;-140.72;0.00;52679.00;5094714;28;20270;-70
2024/01/18 06:02:46;;;;;;;;;;;;;;;-140.72;0.00;52731.75;5083807;28;19974;-70
2024/01/18 06:05:11;;;;;;;;;;;;;;;-140.72;0.00;52670.88;5074059;28;19920;-69
2024/01/18 06:07:36;;;;;;;;;;;;;;;-140.72;0.00;52707.41;5084987;28;20003;-70
2024/01/18 06:10:03;;;;;;;;;;;;;;;-140.72;0.00;52679.00;5091244;28;19916;-70
2024/01/18 06:12:28;;;;;;;;;;;;;;;-140.72;0.00;52674.94;5083780;28;20011;-70
2024/01/18 06:14:54;;;;;;;;;;;;;;;-140.72;0.00;52701.31;5088372;28;20510;-69
2024/01/18 06:17:19;;;;;;;;;;;;;;;-140.72;0.00;52711.47;5089323;28;19972;-70
2024/01/18 06:19:44;;;;;;;;;;;;;;;-140.72;0.00;52679.00;5080782;28;20373;-70
2024/01/18 06:22:10;;;;;;;;;;;;;;;-140.72;0.00;52683.06;5088846;28;19969;-70
2024/01/18 06:24:35;;;;;;;;;;;;;;;-140.72;0.00;52687.13;5085477;28;19920;-70
2024/01/18 06:27:01;;;;;;;;;;;;;;;-140.72;0.00;52687.13;5075883;28;20373;-70
2024/01/18 06:29:29;;;;;;;;;;;;;;;-140.72;0.00;52654.66;5092215;28;19920;-70
2024/01/18 06:31:55;;;;;;;;;;;;;;;-140.72;0.00;52707.41;5092536;28;19920;-70
2024/01/18 06:34:20;;;;;;;;;;;;;;;-140.72;0.00;52707.41;5096513;28;19916;-70
2024/01/18 06:36:45;;;;;;;;;;;;;;;-140.72;0.00;52681.03;5100555;28;19919;-69
2024/01/18 06:39:11;;;;;;;;;;;;;;;-140.72;0.00;52727.72;5093904;28;19968;-70
2024/01/18 06:41:36;;;;;;;;;;;;;;;-140.72;0.00;52670.88;5098469;28;19924;-69
2024/01/18 06:44:01;;;;;;;;;;;;;;;-140.72;0.00;52683.06;5103085;28;20003;-70
2024/01/18 06:46:27;;;;;;;;;;;;;;;-140.72;0.00;52697.28;5079909;28;19964;-72
2024/01/18 06:48:53;;;;;;;;;;;;;;;-140.72;0.00;52707.41;5090290;28;19916;-69
2024/01/18 06:51:21;;;;;;;;;;;;;;;-140.72;0.00;52683.06;5096140;28;19928;-71
2024/01/18 06:53:46;;;;;;;;;;;;;;;-140.72;0.00;52685.09;5086512;28;19920;-69
2024/01/18 06:56:12;;;;;;;;;;;;;;;-140.72;0.00;52699.31;5100401;28;19991;-74
2024/01/18 06:58:38;;;;;;;;;;;;;;;-140.72;0.00;52689.16;5072778;28;19920;-73
2024/01/18 07:01:03;;;;;;;;;;;;;;;-140.72;0.00;52687.13;5083305;28;19950;-71
2024/01/18 07:03:30;;;;;;;;;;;;;;;-140.72;0.00;52670.88;5063381;28;20031;-72
2024/01/18 07:05:56;;;;;;;;;;;;;;;-140.72;0.00;52683.06;5068169;28;20371;-74
2024/01/18 07:08:22;;;;;;;;;;;;;;;-140.72;0.00;52662.78;5070586;28;19916;-71
2024/01/18 07:10:48;;;;;;;;;;;;;;;-140.72;0.00;52707.41;5089654;28;19973;-70
2024/01/18 07:13:13;;;;;;;;;;;;;;;-140.72;0.00;52695.25;5079352;28;19917;-70
2024/01/18 07:15:39;;;;;;;;;;;;;;;-140.72;0.00;52707.41;5073801;28;19917;-70
2024/01/18 07:18:04;;;;;;;;;;;;;;;-140.72;0.00;52685.09;5069307;28;19970;-70
2024/01/18 07:20:29;;;;;;;;;;;;;;;-140.72;0.00;52693.22;5083128;28;20368;-70
2024/01/18 07:22:55;;;;;;;;;;;;;;;-140.72;0.00;52689.16;5106194;28;19924;-70
2024/01/18 07:25:20;;;;;;;;;;;;;;;-140.72;0.00;52691.19;5097247;28;19959;-70
2024/01/18 07:27:45;;;;;;;;;;;;;;;-140.72;0.00;52719.59;5085694;28;20295;-70
2024/01/18 07:30:14;;;;;;;;;;;;;;;-140.72;0.00;52676.97;5095774;28;20381;-70
2024/01/18 07:32:39;;;;;;;;;;;;;;;-140.72;0.00;52709.44;5084791;28;19968;-70
2024/01/18 07:35:04;;;;;;;;;;;;;;;-140.72;0.00;52670.88;5080299;28;20007;-70
2024/01/18 07:37:29;;;;;;;;;;;;;;;-140.72;0.00;52676.97;5086127;28;20044;-70
2024/01/18 07:39:54;;;;;;;;;;;;;;;-140.72;0.00;52715.53;5081679;28;19917;-70
2024/01/18 07:42:20;;;;;;;;;;;;;;;-140.72;0.00;52674.94;5082713;28;19916;-70
2024/01/18 07:44:46;;;;;;;;;;;;;;;-140.72;0.00;52735.81;5068278;28;19927;-70
2024/01/18 07:47:11;;;;;;;;;;;;;;;-140.72;0.00;52697.28;5087612;28;19939;-70
2024/01/18 07:49:37;;;;;;;;;;;;;;;-140.72;0.00;52715.53;5079657;28;19920;-70
2024/01/18 07:52:03;;;;;;;;;;;;;;;-140.72;0.00;52685.09;5086089;28;19923;-70
2024/01/18 07:54:28;;;;;;;;;;;;;;;-140.72;0.00;52699.31;5086692;28;19916;-70
2024/01/18 07:56:55;;;;;;;;;;;;;;;-140.72;0.00;52711.47;5082303;28;20384;-70
2024/01/18 07:59:21;;;;;;;;;;;;;;;-140.72;0.00;52679.00;5086737;28;20644;-70
2024/01/18 08:01:47;;;;;;;;;;;;;;;-140.72;0.00;52721.63;5096004;28;20335;-70
2024/01/18 08:04:12;;;;;;;;;;;;;;;-140.72;0.00;52709.44;5094807;28;20018;-70
2024/01/18 08:06:37;;;;;;;;;;;;;;;-140.72;0.00;52691.19;5089388;28;19920;-70
2024/01/18 08:09:02;;;;;;;;;;;;;;;-140.72;0.00;52683.06;5086812;28;19951;-70
2024/01/18 08:11:28;;;;;;;;;;;;;;;-140.72;0.00;52674.94;5084552;28;20018;-71
2024/01/18 08:13:53;;;;;;;;;;;;;;;-140.72;0.00;52687.13;5083656;28;19924;-70
2024/01/18 08:16:18;;;;;;;;;;;;;;;-140.72;0.00;52674.94;5088385;28;19951;-70
2024/01/18 08:18:44;;;;;;;;;;;;;;;-140.72;0.00;52695.25;5094741;28;19924;-70
2024/01/18 08:21:09;;;;;;;;;;;;;;;-140.72;0.00;52693.22;5090747;28;19920;-70
2024/01/18 08:23:34;;;;;;;;;;;;;;;-140.72;0.00;52666.84;5089552;28;20297;-70
2024/01/18 08:26:00;;;;;;;;;;;;;;;-140.72;0.00;52709.44;5085470;28;19927;-70
2024/01/18 08:28:25;;;;;;;;;;;;;;;-140.72;0.00;52709.44;5089491;28;19919;-70
2024/01/18 08:30:51;;;;;;;;;;;;;;;-140.72;0.00;52670.88;5088201;28;19921;-70
2024/01/18 08:33:16;;;;;;;;;;;;;;;-140.72;0.00;52666.84;5102351;28;19920;-70
2024/01/18 08:35:41;;;;;;;;;;;;;;;-140.72;0.00;52691.19;5086188;28;19923;-70
2024/01/18 08:38:07;;;;;;;;;;;;;;;-140.72;0.00;52648.56;5092974;28;19923;-70
2024/01/18 08:40:33;;;;;;;;;;;;;;;-140.72;0.00;52705.38;5094511;28;19923;-69
2024/01/18 08:42:59;;;;;;;;;;;;;;;-140.72;0.00;52676.97;5086420;28;19920;-70
2024/01/18 08:45:25;;;;;;;;;;;;;;;-140.72;0.00;52658.72;5083591;28;20323;-70
2024/01/18 08:47:50;;;;;;;;;;;;;;;-140.72;0.00;52618.13;5086476;28;19931;-70
2024/01/18 08:50:15;;;;;;;;;;;;;;;-140.72;0.00;52650.59;5087484;28;19927;-70
2024/01/18 08:52:41;;;;;;;;;;;;;;;-140.72;0.00;52658.72;5087942;28;19923;-70
2024/01/18 08:55:06;;;;;;;;;;;;;;;-140.72;0.00;52652.63;5075742;28;19924;-70
2024/01/18 08:57:31;;;;;;;;;;;;;;;-140.72;0.00;52638.41;5077025;28;20337;-70
2024/01/18 08:59:57;;;;;;;;;;;;;;;-140.72;0.00;52691.19;5083102;28;19916;-70
2024/01/18 09:02:22;;;;;;;;;;;;;;;-140.72;0.00;52630.31;5084477;28;19924;-70
2024/01/18 09:04:47;;;;;;;;;;;;;;;-140.72;0.00;52644.50;5082399;28;20055;-70
2024/01/18 09:07:12;;;;;;;;;;;;;;;-140.72;0.00;52624.22;5083084;28;19928;-70
2024/01/18 09:09:38;;;;;;;;;;;;;;;-140.72;0.00;52646.53;5075646;28;19924;-70
2024/01/18 09:12:03;;;;;;;;;;;;;;;-140.72;0.00;52646.53;5079435;28;19924;-70
2024/01/18 09:14:28;;;;;;;;;;;;;;;-140.72;0.00;52634.38;5092234;28;19944;-70
2024/01/18 09:16:53;;;;;;;;;;;;;;;-140.72;0.00;52622.19;5089054;28;20080;-70
2024/01/18 09:19:20;;;;;;;;;;;;;;;-140.72;0.00;52624.22;5094081;28;19958;-70
2024/01/18 09:21:46;;;;;;;;;;;;;;;-140.72;0.00;52658.72;5055813;28;19917;-69
2024/01/18 09:24:12;;;;;;;;;;;;;;;-140.72;0.00;52640.44;5078414;28;19924;-70
2024/01/18 09:26:37;;;;;;;;;;;;;;;-140.72;0.00;52622.19;5085713;28;19926;-70
2024/01/18 09:29:02;;;;;;;;;;;;;;;-140.72;0.00;52591.75;5087322;28;19954;-70
2024/01/18 09:31:28;;;;;;;;;;;;;;;-140.72;0.00;52622.19;5084480;28;19922;-70
2024/01/18 09:33:53;;;;;;;;;;;;;;;-140.72;0.00;52581.59;5074019;28;20056;-70
2024/01/18 09:36:19;;;;;;;;;;;;;;;-140.72;0.00;52591.75;5090152;28;19974;-70
2024/01/18 09:38:44;;;;;;;;;;;;;;;-140.72;0.00;52577.53;5075189;28;19916;-70
2024/01/18 09:41:10;;;;;;;;;;;;;;;-140.72;0.00;52553.19;5091086;28;19935;-70
2024/01/18 09:43:39;;;;;;;;;;;;;;;-140.72;0.00;52591.75;5086169;28;20510;-70
2024/01/18 09:46:06;;;;;;;;;;;;;;;-140.72;0.00;52589.72;5088679;28;19916;-70
2024/01/18 09:48:32;;;;;;;;;;;;;;;-140.72;0.00;52595.81;5084307;28;19916;-70
2024/01/18 09:50:57;;;;;;;;;;;;;;;-140.72;0.00;52589.72;5091178;28;19923;-70
2024/01/18 09:53:22;;;;;;;;;;;;;;;-140.72;0.00;52595.81;5093547;28;19920;-70
2024/01/18 09:55:52;;;;;;;;;;;;;;;-140.72;0.00;52577.53;5080799;28;19920;-70
2024/01/18 09:58:18;;;;;;;;;;;;;;;-140.72;0.00;52589.72;5089966;28;20369;-70
2024/01/18 10:00:47;;;;;;;;;;;;;;;-140.72;0.00;52557.25;5090818;28;20338;-70
2024/01/18 10:03:12;;;;;;;;;;;;;;;-140.72;0.00;52551.16;5078823;28;19977;-70
2024/01/18 10:05:37;;;;;;;;;;;;;;;-140.72;0.00;52532.91;5091888;28;20215;-70
2024/01/18 10:08:03;;;;;;;;;;;;;;;-140.72;0.00;52553.19;5082074;28;20395;-70
2024/01/18 10:10:28;;;;;;;;;;;;;;;-140.72;0.00;52534.94;5082737;28;19916;-70
2024/01/18 10:12:54;;;;;;;;;;;;;;;-140.72;0.00;52526.81;5082256;28;19924;-70
2024/01/18 10:15:32;;;;;;;;;;;;;;;-140.72;0.00;52524.78;5084846;28;19928;-70
2024/01/18 10:17:58;;;;;;;;;;;;;;;-140.72;0.00;52553.19;5077544;28;19928;-70
2024/01/18 10:20:24;;;;;;;;;;;;;;;-140.72;0.00;52543.03;5100568;28;19922;-70
2024/01/18 10:22:49;;;;;;;;;;;;;;;-140.72;0.00;52543.03;5096426;28;20430;-70
2024/01/18 10:25:14;;;;;;;;;;;;;;;-140.72;0.00;52565.38;5088224;28;19943;-70
2024/01/18 10:27:42;;;;;;;;;;;;;;;-140.72;0.00;52534.94;5089954;28;19919;-70
2024/01/18 10:30:08;;;;;;;;;;;;;;;-140.72;0.00;52545.06;5089861;28;19916;-70
2024/01/18 10:32:34;;;;;;;;;;;;;;;-140.72;0.00;52559.28;5084774;28;19938;-70
2024/01/18 10:34:59;;;;;;;;;;;;;;;-140.72;0.00;52520.72;5092313;28;19916;-70
2024/01/18 10:37:24;;;;;;;;;;;;;;;-140.72;0.00;52534.94;5090508;28;19916;-70
2024/01/18 10:39:49;;;;;;;;;;;;;;;-140.72;0.00;52476.09;5097008;28;19919;-71
2024/01/18 10:42:15;;;;;;;;;;;;;;;-140.72;0.00;52555.22;5099141;28;20404;-70
2024/01/18 10:44:41;;;;;;;;;;;;;;;-140.72;0.00;52522.75;5098980;28;19923;-70
2024/01/18 10:47:07;;;;;;;;;;;;;;;-140.72;0.00;52541.03;5097104;28;19963;-70
2024/01/18 10:49:33;;;;;;;;;;;;;;;-140.72;0.00;52571.47;5085369;28;19966;-70
2024/01/18 10:51:59;;;;;;;;;;;;;;;-140.72;0.00;52553.19;5085145;28;20396;-70
2024/01/18 10:54:24;;;;;;;;;;;;;;;-140.72;0.00;52532.91;5097385;28;19920;-71
2024/01/18 10:56:49;;;;;;;;;;;;;;;-140.72;0.00;52532.91;5093985;28;19923;-70
2024/01/18 10:59:14;;;;;;;;;;;;;;;-140.72;0.00;52545.06;5087981;28;19978;-70
2024/01/18 11:01:40;;;;;;;;;;;;;;;-140.72;0.00;52549.13;5089990;28;19922;-70
2024/01/18 11:04:06;;;;;;;;;;;;;;;-140.72;0.00;52553.19;5089484;28;19916;-70
2024/01/18 11:06:32;;;;;;;;;;;;;;;-140.72;0.00;52526.81;5088790;28;19924;-70
2024/01/18 11:08:58;;;;;;;;;;;;;;;-140.72;0.00;52543.03;5085036;28;19969;-71
2024/01/18 11:11:23;;;;;;;;;;;;;;;-140.72;0.00;52536.97;5083574;28;19923;-70
2024/01/18 11:13:49;;;;;;;;;;;;;;;-140.72;0.00;52526.81;5086237;28;19995;-70
2024/01/18 11:16:14;;;;;;;;;;;;;;;-140.72;0.00;52549.13;5079143;28;20317;-70
2024/01/18 11:18:39;;;;;;;;;;;;;;;-140.72;0.00;52549.13;5091021;28;19920;-71
2024/01/18 11:21:06;;;;;;;;;;;;;;;-140.72;0.00;52555.22;5103386;28;19920;-70
2024/01/18 11:23:34;;;;;;;;;;;;;;;-140.72;0.00;52541.03;5094824;28;19916;-71
2024/01/18 11:25:59;;;;;;;;;;;;;;;-140.72;0.00;52502.47;5103063;28;20007;-71
2024/01/18 11:28:25;;;;;;;;;;;;;;;-140.72;0.00;52480.16;5102581;28;19995;-70
2024/01/18 11:30:51;;;;;;;;;;;;;;;-140.72;0.00;52425.34;5089839;28;19928;-71
2024/01/18 11:33:16;;;;;;;;;;;;;;;-140.72;0.00;52455.78;5085685;28;19931;-71
2024/01/18 11:35:41;;;;;;;;;;;;;;;-140.72;0.00;52445.66;5083535;28;21022;-71
2024/01/18 11:38:19;;;;;;;;;;;;;;;-140.72;0.00;52476.09;5086394;28;19917;-71
2024/01/18 11:40:45;;;;;;;;;;;;;;;-140.72;0.00;52504.50;5102058;28;19916;-71
2024/01/18 11:43:11;;;;;;;;;;;;;;;-140.72;0.00;52553.19;5090630;28;20261;-70
2024/01/18 11:45:36;;;;;;;;;;;;;;;-140.72;0.00;52569.44;5072185;28;19963;-71
2024/01/18 11:48:01;;;;;;;;;;;;;;;-140.72;0.00;52569.44;5071493;28;20062;-70
2024/01/18 11:50:27;;;;;;;;;;;;;;;-140.72;0.00;52543.03;5089529;28;19916;-70
2024/01/18 11:52:52;;;;;;;;;;;;;;;-140.72;0.00;52571.47;5102738;28;19969;-70
2024/01/18 11:55:17;;;;;;;;;;;;;;;-140.72;0.00;52518.69;5100263;28;19920;-70
2024/01/18 11:57:43;;;;;;;;;;;;;;;-140.72;0.00;52597.84;5091407;28;19916;-70
2024/01/18 12:00:10;;;;;;;;;;;;;;;-140.72;0.00;52541.03;5090133;28;19916;-71
2024/01/18 12:02:36;;;;;;;;;;;;;;;-140.72;0.00;52555.22;5090512;28;20007;-71
2024/01/18 12:05:03;;;;;;;;;;;;;;;-140.72;0.00;52530.88;5088974;28;20078;-71
2024/01/18 12:07:28;;;;;;;;;;;;;;;-140.72;0.00;52536.97;5079844;28;19920;-71
2024/01/18 12:09:54;;;;;;;;;;;;;;;-140.72;0.00;52561.31;5087252;28;19943;-71
2024/01/18 12:12:19;;;;;;;;;;;;;;;-140.72;0.00;52547.09;5087421;28;19920;-71
2024/01/18 12:14:45;;;;;;;;;;;;;;;-140.72;0.00;52524.78;5082404;28;19924;-71
2024/01/18 12:17:12;;;;;;;;;;;;;;;-140.72;0.00;52522.75;5084080;28;19971;-71
2024/01/18 12:19:37;;;;;;;;;;;;;;;-140.72;0.00;52539.00;5075256;28;20739;-71
2024/01/18 12:22:05;;;;;;;;;;;;;;;-140.72;0.00;52518.69;5091394;28;19916;-71
2024/01/18 12:24:30;;;;;;;;;;;;;;;-140.72;0.00;52528.84;5090002;28;19966;-71
2024/01/18 12:26:56;;;;;;;;;;;;;;;-140.72;0.00;52496.38;5085102;28;20336;-71